createdAt,value
2022-10-21T00:00:53.673Z,14.18
2022-10-21T00:03:22.815Z,14.20
2022-10-21T00:05:50.799Z,14.21
2022-10-21T00:08:20.111Z,14.19
2022-10-21T00:10:51.343Z,14.21
2022-10-21T00:13:19.014Z,14.22
2022-10-21T00:15:46.632Z,14.23
2022-10-21T00:18:14.253Z,14.22
2022-10-21T00:20:42.384Z,14.21
2022-10-21T00:23:09.957Z,14.18
2022-10-21T00:25:39.522Z,14.20
2022-10-21T00:28:07.093Z,14.21
2022-10-21T00:30:34.693Z,14.21
2022-10-21T00:33:03.336Z,14.19
2022-10-21T00:35:34.933Z,14.20
2022-10-21T00:38:02.651Z,14.21
2022-10-21T00:40:30.414Z,14.18
2022-10-21T00:42:58.119Z,14.17
2022-10-21T00:45:30.961Z,14.15
2022-10-21T00:48:05.806Z,14.18
2022-10-21T00:50:42.606Z,14.20
2022-10-21T00:53:14.834Z,14.21
2022-10-21T00:56:01.204Z,14.21
2022-10-21T00:58:33.097Z,14.22
2022-10-21T01:01:02.726Z,14.20
2022-10-21T01:03:32.138Z,14.19
2022-10-21T01:06:02.880Z,14.16
2022-10-21T01:08:30.801Z,14.12
2022-10-21T01:11:00.292Z,14.07
2022-10-21T01:13:39.739Z,14.05
2022-10-21T01:16:34.704Z,14.01
2022-10-21T01:19:29.431Z,13.97
2022-10-21T01:22:13.413Z,13.93
2022-10-21T01:25:02.239Z,13.88
2022-10-21T01:28:08.429Z,13.86
2022-10-21T01:30:43.804Z,13.85
2022-10-21T01:33:24.852Z,13.84
2022-10-21T01:36:01.201Z,13.85
2022-10-21T01:38:55.874Z,13.82
2022-10-21T01:41:34.117Z,13.82
2022-10-21T01:44:17.248Z,13.80
2022-10-21T01:47:00.340Z,13.86
2022-10-21T01:49:33.861Z,13.86
2022-10-21T01:52:03.757Z,13.88
2022-10-21T01:54:42.200Z,13.90
2022-10-21T01:57:13.588Z,13.92
2022-10-21T01:59:44.339Z,13.95
2022-10-21T02:02:13.988Z,13.99
2022-10-21T02:04:45.752Z,14.00
2022-10-21T02:07:13.411Z,14.02
2022-10-21T02:09:41.153Z,14.04
2022-10-21T02:12:08.918Z,14.05
2022-10-21T02:14:46.524Z,14.06
2022-10-21T02:17:18.320Z,14.08
2022-10-21T02:19:47.507Z,14.05
2022-10-21T02:22:21.746Z,14.10
2022-10-21T02:24:57.805Z,14.13
2022-10-21T02:27:25.680Z,14.12
2022-10-21T02:29:58.297Z,14.16
2022-10-21T02:32:46.988Z,14.17
2022-10-21T02:35:35.926Z,14.17
2022-10-21T02:38:08.657Z,14.16
2022-10-21T02:40:39.338Z,14.16
2022-10-21T02:43:13.157Z,14.17
2022-10-21T02:45:41.573Z,14.18
2022-10-21T02:48:09.206Z,14.16
2022-10-21T02:50:36.833Z,14.14
2022-10-21T02:53:04.657Z,14.15
2022-10-21T02:55:32.260Z,14.17
2022-10-21T02:57:59.945Z,14.16
2022-10-21T03:00:30.797Z,14.17
2022-10-21T03:03:00.524Z,14.17
2022-10-21T03:05:28.198Z,14.18
2022-10-21T03:07:55.821Z,14.14
2022-10-21T03:10:23.420Z,14.14
2022-10-21T03:12:51.452Z,14.14
2022-10-21T03:15:19.113Z,14.12
2022-10-21T03:17:47.796Z,14.13
2022-10-21T03:20:15.594Z,14.13
2022-10-21T03:22:43.405Z,14.12
2022-10-21T03:25:12.000Z,14.14
2022-10-21T03:27:39.703Z,14.13
2022-10-21T03:30:08.919Z,14.15
2022-10-21T03:32:37.122Z,14.17
2022-10-21T03:35:05.165Z,14.16
2022-10-21T03:37:32.736Z,14.16
2022-10-21T03:40:00.341Z,14.13
2022-10-21T03:42:29.742Z,14.13
2022-10-21T03:44:57.412Z,14.11
2022-10-21T03:47:25.352Z,14.12
2022-10-21T03:49:52.993Z,14.11
2022-10-21T03:52:20.570Z,14.10
2022-10-21T03:54:48.201Z,14.08
2022-10-21T03:57:15.767Z,14.09
2022-10-21T03:59:43.402Z,14.05
2022-10-21T04:02:11.033Z,14.07
2022-10-21T04:04:38.949Z,14.07
2022-10-21T04:07:06.589Z,14.09
2022-10-21T04:09:34.229Z,14.10
2022-10-21T04:12:01.847Z,14.09
2022-10-21T04:14:29.560Z,14.10
2022-10-21T04:17:06.454Z,14.07
2022-10-21T04:19:34.963Z,14.05
2022-10-21T04:22:02.651Z,14.04
2022-10-21T04:24:30.304Z,14.05
2022-10-21T04:26:58.043Z,14.02
2022-10-21T04:29:25.679Z,14.01
2022-10-21T04:31:53.370Z,14.01
2022-10-21T04:34:21.020Z,14.01
2022-10-21T04:36:48.609Z,14.01
2022-10-21T04:39:16.280Z,14.00
2022-10-21T04:41:45.541Z,14.03
2022-10-21T04:44:13.185Z,14.04
2022-10-21T04:46:40.935Z,14.05
2022-10-21T04:49:08.569Z,14.06
2022-10-21T04:51:36.198Z,14.08
2022-10-21T04:54:03.883Z,14.07
2022-10-21T04:56:31.668Z,14.08
2022-10-21T04:58:59.276Z,14.09
2022-10-21T05:01:27.106Z,14.07
2022-10-21T05:03:54.833Z,14.08
2022-10-21T05:06:22.527Z,14.08
2022-10-21T05:08:50.159Z,14.08
2022-10-21T05:11:17.800Z,14.08
2022-10-21T05:13:46.481Z,14.09
2022-10-21T05:16:14.094Z,14.09
2022-10-21T05:18:41.767Z,14.09
2022-10-21T05:21:09.390Z,14.08
2022-10-21T05:23:37.064Z,14.09
2022-10-21T05:26:04.726Z,14.06
2022-10-21T05:28:32.382Z,14.06
2022-10-21T05:30:59.996Z,14.05
2022-10-21T05:33:27.706Z,14.05
2022-10-21T05:36:02.767Z,14.06
2022-10-21T05:38:30.758Z,14.06
2022-10-21T05:40:58.926Z,14.09
2022-10-21T05:43:26.883Z,14.11
2022-10-21T05:45:55.063Z,14.12
2022-10-21T05:48:22.888Z,14.13
2022-10-21T05:50:54.550Z,14.19
2022-10-21T05:53:24.983Z,14.19
2022-10-21T05:55:57.136Z,14.22
2022-10-21T05:58:25.769Z,14.21
2022-10-21T06:00:55.878Z,14.22
2022-10-21T06:03:24.778Z,14.22
2022-10-21T06:05:52.637Z,14.24
2022-10-21T06:08:20.338Z,14.28
2022-10-21T06:10:47.972Z,14.23
2022-10-21T06:13:15.594Z,14.21
2022-10-21T06:15:45.339Z,14.24
2022-10-21T06:18:16.378Z,14.28
2022-10-21T06:20:44.014Z,14.40
2022-10-21T06:23:13.612Z,14.48
2022-10-21T06:25:41.239Z,14.54
2022-10-21T06:28:08.899Z,14.62
2022-10-21T06:30:36.957Z,14.63
2022-10-21T06:33:04.640Z,14.69
2022-10-21T06:35:32.260Z,14.73
2022-10-21T06:37:59.949Z,14.77
2022-10-21T06:40:27.580Z,14.82
2022-10-21T06:42:55.222Z,14.80
2022-10-21T06:45:22.870Z,14.83
2022-10-21T06:47:50.546Z,14.88
2022-10-21T06:50:19.356Z,14.86
2022-10-21T06:52:49.714Z,14.84
2022-10-21T06:55:17.871Z,14.77
2022-10-21T06:57:45.958Z,14.69
2022-10-21T07:00:14.895Z,14.55
2022-10-21T07:02:43.446Z,14.46
2022-10-21T07:05:11.620Z,14.40
2022-10-21T07:07:39.529Z,14.38
2022-10-21T07:10:07.530Z,14.37
2022-10-21T07:12:35.321Z,14.38
2022-10-21T07:15:03.008Z,14.40
2022-10-21T07:17:32.159Z,14.35
2022-10-21T07:19:59.834Z,14.31
2022-10-21T07:22:27.471Z,14.30
2022-10-21T07:24:55.390Z,14.30
2022-10-21T07:27:23.016Z,14.30
2022-10-21T07:29:50.758Z,14.33
2022-10-21T07:32:18.420Z,14.31
2022-10-21T07:34:46.021Z,14.36
2022-10-21T07:37:13.710Z,14.38
2022-10-21T07:39:41.323Z,14.38
2022-10-21T07:42:10.898Z,14.39
2022-10-21T07:44:38.524Z,14.42
2022-10-21T07:47:06.139Z,14.49
2022-10-21T07:49:33.850Z,14.56
2022-10-21T07:52:01.569Z,14.66
2022-10-21T07:54:29.274Z,14.71
2022-10-21T07:56:57.011Z,14.74
2022-10-21T07:59:24.736Z,14.78
2022-10-21T08:01:53.797Z,14.85
2022-10-21T08:04:24.349Z,14.95
2022-10-21T08:06:51.974Z,14.99
2022-10-21T08:09:19.726Z,15.00
2022-10-21T08:11:47.417Z,15.03
2022-10-21T08:14:15.788Z,15.07
2022-10-21T08:16:43.474Z,15.07
2022-10-21T08:19:20.020Z,15.13
2022-10-21T08:21:47.782Z,15.17
2022-10-21T08:24:15.524Z,15.24
2022-10-21T08:26:43.247Z,15.26
2022-10-21T08:29:10.905Z,15.30
2022-10-21T08:31:38.606Z,15.31
2022-10-21T08:34:06.270Z,15.33
2022-10-21T08:36:33.901Z,15.33
2022-10-21T08:39:01.546Z,15.38
2022-10-21T08:41:32.104Z,15.40
2022-10-21T08:44:32.395Z,15.45
2022-10-21T08:47:24.127Z,15.48
2022-10-21T08:50:05.534Z,15.49
2022-10-21T08:52:41.147Z,15.52
2022-10-21T08:55:17.927Z,15.57
2022-10-21T08:57:45.823Z,15.61
2022-10-21T09:00:39.258Z,15.56
2022-10-21T09:03:15.845Z,15.45
2022-10-21T09:06:05.482Z,15.43
2022-10-21T09:08:57.399Z,15.40
2022-10-21T09:11:25.299Z,15.40
2022-10-21T09:14:22.252Z,15.41
2022-10-21T09:16:59.104Z,15.46
2022-10-21T09:19:53.118Z,15.54
2022-10-21T09:23:19.213Z,15.59
2022-10-21T09:26:02.506Z,15.67
2022-10-21T09:28:32.022Z,15.77
2022-10-21T09:31:03.509Z,15.84
2022-10-21T09:33:34.441Z,15.92
2022-10-21T09:36:14.964Z,16.01
2022-10-21T09:38:44.952Z,16.12
2022-10-21T09:43:55.082Z,16.22
2022-10-21T09:46:23.133Z,16.21
2022-10-21T09:51:46.507Z,16.24
2022-10-21T09:54:21.885Z,16.21
2022-10-21T09:57:21.938Z,16.20
2022-10-21T09:59:58.935Z,16.18
2022-10-21T10:02:44.178Z,16.26
2022-10-21T10:05:37.262Z,16.25
2022-10-21T10:08:31.524Z,16.35
2022-10-21T10:11:11.339Z,16.38
2022-10-21T10:13:48.468Z,16.39
2022-10-21T10:16:36.267Z,16.33
2022-10-21T10:19:22.643Z,16.28
2022-10-21T10:22:10.785Z,16.26
2022-10-21T10:24:41.648Z,16.22
2022-10-21T10:27:24.390Z,16.23
2022-10-21T10:29:56.521Z,16.19
2022-10-21T10:32:27.734Z,16.21
2022-10-21T10:34:58.934Z,16.17
2022-10-21T10:37:30.144Z,16.18
2022-10-21T10:40:00.446Z,16.16
2022-10-21T10:42:34.150Z,16.16
2022-10-21T10:45:14.374Z,16.16
2022-10-21T10:47:57.717Z,16.13
2022-10-21T10:50:44.722Z,16.16
2022-10-21T10:53:32.228Z,16.18
2022-10-21T10:56:30.264Z,16.18
2022-10-21T10:59:24.807Z,16.17
2022-10-21T11:01:52.367Z,16.16
2022-10-21T11:04:29.887Z,16.13
2022-10-21T11:07:04.478Z,16.16
2022-10-21T11:09:35.330Z,16.18
2022-10-21T11:12:07.489Z,16.17
2022-10-21T11:14:35.581Z,16.16
2022-10-21T11:17:19.956Z,16.18
2022-10-21T11:19:56.514Z,16.19
2022-10-21T11:22:35.931Z,16.18
2022-10-21T11:25:17.316Z,16.18
2022-10-21T11:28:13.346Z,16.18
2022-10-21T11:30:40.908Z,16.19
2022-10-21T11:33:27.502Z,16.22
2022-10-21T11:36:14.149Z,16.25
2022-10-21T11:39:00.105Z,16.20
2022-10-21T11:41:36.584Z,16.23
2022-10-21T11:44:19.054Z,16.21
2022-10-21T11:47:18.015Z,16.24
2022-10-21T11:49:54.627Z,16.25
2022-10-21T11:52:47.731Z,16.26
2022-10-21T11:55:49.600Z,16.27
2022-10-21T11:58:46.041Z,16.27
2022-10-21T12:01:38.720Z,16.27
2022-10-21T12:04:22.622Z,16.25
2022-10-21T12:07:04.268Z,16.23
2022-10-21T12:09:52.826Z,16.17
2022-10-21T12:12:33.401Z,16.14
2022-10-21T12:15:03.804Z,16.09
2022-10-21T12:20:24.108Z,16.12
2022-10-21T12:23:00.448Z,16.14
2022-10-21T12:25:56.948Z,16.16
2022-10-21T12:28:30.815Z,16.18
2022-10-21T12:31:12.215Z,16.21
2022-10-21T12:33:49.127Z,16.24
2022-10-21T12:36:25.845Z,16.26
2022-10-21T12:38:55.920Z,16.27
2022-10-21T12:41:29.281Z,16.31
2022-10-21T12:44:02.784Z,16.31
2022-10-21T12:46:47.934Z,16.32
2022-10-21T12:49:27.698Z,16.34
2022-10-21T12:52:10.774Z,16.35
2022-10-21T12:55:00.489Z,16.35
2022-10-21T12:57:31.879Z,16.31
2022-10-21T13:00:38.109Z,16.29
2022-10-21T13:03:19.931Z,16.25
2022-10-21T13:05:47.522Z,16.23
2022-10-21T13:08:24.037Z,16.20
2022-10-21T13:11:06.681Z,16.22
2022-10-21T13:13:43.339Z,16.22
2022-10-21T13:16:17.219Z,16.22
2022-10-21T13:19:03.148Z,16.25
2022-10-21T13:21:30.692Z,16.29
2022-10-21T13:24:07.517Z,16.35
2022-10-21T13:26:51.734Z,16.35
2022-10-21T13:29:28.206Z,16.38
2022-10-21T13:32:22.296Z,16.43
2022-10-21T13:34:50.226Z,16.48
2022-10-21T13:37:30.545Z,16.50
2022-10-21T13:40:07.468Z,16.52
2022-10-21T13:42:43.949Z,16.53
2022-10-21T13:45:30.963Z,16.54
2022-10-21T13:48:08.595Z,16.54
2022-10-21T13:50:44.213Z,16.54
2022-10-21T13:53:26.844Z,16.54
2022-10-21T13:56:09.782Z,16.53
2022-10-21T13:58:41.764Z,16.48
2022-10-21T14:01:19.825Z,16.50
2022-10-21T14:06:31.630Z,16.49
2022-10-21T14:09:05.335Z,16.48
2022-10-21T14:11:44.574Z,16.49
2022-10-21T14:14:17.170Z,16.50
2022-10-21T14:16:50.585Z,16.50
2022-10-21T14:19:22.257Z,16.50
2022-10-21T14:21:53.528Z,16.54
2022-10-21T14:24:39.865Z,16.53
2022-10-21T14:27:09.124Z,16.55
2022-10-21T14:29:37.517Z,16.55
2022-10-21T14:32:06.509Z,16.57
2022-10-21T14:34:36.847Z,16.59
2022-10-21T14:37:19.389Z,16.57
2022-10-21T14:39:47.781Z,16.59
2022-10-21T14:42:22.617Z,16.60
2022-10-21T14:44:53.679Z,16.65
2022-10-21T14:47:26.190Z,16.63
2022-10-21T14:49:57.433Z,16.63
2022-10-21T14:52:39.841Z,16.63
2022-10-21T14:55:11.099Z,16.63
2022-10-21T14:57:38.635Z,16.58
2022-10-21T15:00:11.214Z,16.58
2022-10-21T15:02:39.961Z,16.57
2022-10-21T15:05:29.770Z,16.55
2022-10-21T15:08:16.063Z,16.53
2022-10-21T15:10:43.809Z,16.53
2022-10-21T15:13:19.333Z,16.51
2022-10-21T15:15:58.695Z,16.48
2022-10-21T15:18:30.891Z,16.48
2022-10-21T15:21:02.550Z,16.46
2022-10-21T15:23:49.686Z,16.44
2022-10-21T15:26:24.008Z,16.45
2022-10-21T15:28:52.896Z,16.47
2022-10-21T15:31:23.478Z,16.56
2022-10-21T15:33:52.726Z,16.71
2022-10-21T15:36:20.739Z,16.86
2022-10-21T15:38:49.240Z,16.98
2022-10-21T15:41:22.136Z,17.06
2022-10-21T15:44:20.904Z,17.25
2022-10-21T15:46:51.045Z,17.42
2022-10-21T15:49:24.058Z,17.49
2022-10-21T15:51:51.815Z,17.60
2022-10-21T15:54:20.667Z,17.72
2022-10-21T15:56:51.321Z,17.90
2022-10-21T15:59:27.599Z,17.99
2022-10-21T16:01:56.617Z,18.22
2022-10-21T16:04:24.825Z,18.19
2022-10-21T16:06:53.779Z,18.25
2022-10-21T16:09:29.187Z,18.22
2022-10-21T16:12:01.473Z,18.18
2022-10-21T16:14:31.217Z,18.17
2022-10-21T16:17:00.007Z,18.09
2022-10-21T16:19:27.847Z,18.00
2022-10-21T16:21:55.798Z,18.03
2022-10-21T16:24:23.478Z,18.06
2022-10-21T16:26:51.529Z,18.13
2022-10-21T16:29:22.508Z,18.21
2022-10-21T16:31:50.782Z,18.26
2022-10-21T16:34:18.559Z,18.26
2022-10-21T16:36:46.240Z,18.23
2022-10-21T16:39:23.232Z,18.19
2022-10-21T16:41:50.961Z,18.16
2022-10-21T16:44:19.316Z,18.14
2022-10-21T16:46:52.633Z,18.13
2022-10-21T16:49:28.005Z,18.09
2022-10-21T16:51:58.489Z,18.08
2022-10-21T16:54:26.088Z,18.04
2022-10-21T16:56:55.336Z,18.04
2022-10-21T16:59:23.666Z,18.03
2022-10-21T17:01:51.557Z,18.02
2022-10-21T17:04:19.386Z,17.91
2022-10-21T17:06:47.066Z,17.87
2022-10-21T17:09:14.847Z,17.82
2022-10-21T17:11:43.563Z,17.79
2022-10-21T17:14:17.326Z,17.71
2022-10-21T17:16:46.471Z,17.65
2022-10-21T17:19:15.830Z,17.57
2022-10-21T17:21:43.786Z,17.51
2022-10-21T17:24:15.685Z,17.42
2022-10-21T17:26:43.694Z,17.32
2022-10-21T17:29:12.816Z,17.23
2022-10-21T17:31:42.817Z,17.20
2022-10-21T17:34:29.429Z,17.18
2022-10-21T17:36:57.512Z,17.18
2022-10-21T17:39:25.749Z,17.06
2022-10-21T17:41:53.492Z,16.99
2022-10-21T17:44:21.258Z,16.87
2022-10-21T17:46:50.532Z,16.79
2022-10-21T17:49:18.273Z,16.70
2022-10-21T17:51:45.911Z,16.61
2022-10-21T17:54:13.519Z,16.50
2022-10-21T17:56:42.803Z,16.41
2022-10-21T17:59:10.738Z,16.31
2022-10-21T18:01:38.616Z,16.18
2022-10-21T18:04:06.276Z,16.08
2022-10-21T18:06:34.375Z,16.01
2022-10-21T18:09:02.098Z,15.93
2022-10-21T18:11:29.849Z,15.88
2022-10-21T18:13:57.559Z,15.79
2022-10-21T18:16:25.889Z,15.72
2022-10-21T18:18:57.319Z,15.68
2022-10-21T18:21:28.062Z,15.62
2022-10-21T18:23:55.783Z,15.58
2022-10-21T18:26:27.260Z,15.52
2022-10-21T18:28:58.221Z,15.46
2022-10-21T18:31:29.228Z,15.42
2022-10-21T18:33:58.157Z,15.38
2022-10-21T18:36:26.681Z,15.34
2022-10-21T18:38:55.151Z,15.31
2022-10-21T18:41:23.456Z,15.28
2022-10-21T18:43:53.752Z,15.26
2022-10-21T18:46:23.118Z,15.26
2022-10-21T18:48:51.203Z,15.28
2022-10-21T18:51:20.176Z,15.32
2022-10-21T18:53:50.099Z,15.35
2022-10-21T18:56:20.711Z,15.39
2022-10-21T18:58:48.642Z,15.43
2022-10-21T19:01:16.702Z,15.45
2022-10-21T19:03:44.740Z,15.50
2022-10-21T19:06:39.539Z,15.48
2022-10-21T19:09:14.377Z,15.46
2022-10-21T19:11:43.697Z,15.46
2022-10-21T19:14:14.167Z,15.44
2022-10-21T19:16:43.586Z,15.42
2022-10-21T19:19:11.987Z,15.37
2022-10-21T19:21:39.997Z,15.30
2022-10-21T19:24:08.297Z,15.25
2022-10-21T19:26:39.091Z,15.18
2022-10-21T19:29:09.912Z,15.12
2022-10-21T19:31:38.538Z,15.05
2022-10-21T19:34:07.933Z,14.98
2022-10-21T19:36:35.757Z,14.92
2022-10-21T19:39:03.459Z,14.85
2022-10-21T19:41:31.073Z,14.78
2022-10-21T19:44:02.191Z,14.74
2022-10-21T19:46:32.847Z,14.70
2022-10-21T19:49:05.860Z,14.67
2022-10-21T19:51:33.588Z,14.63
2022-10-21T19:54:05.033Z,14.57
2022-10-21T19:56:34.417Z,14.56
2022-10-21T19:59:03.661Z,14.52
2022-10-21T20:01:33.003Z,14.51
2022-10-21T20:04:03.129Z,14.47
2022-10-21T20:06:33.234Z,14.45
2022-10-21T20:09:09.968Z,14.44
2022-10-21T20:11:38.800Z,14.43
2022-10-21T20:14:06.947Z,14.43
2022-10-21T20:16:37.978Z,14.43
2022-10-21T20:19:07.393Z,14.43
2022-10-21T20:21:36.477Z,14.42
2022-10-21T20:24:04.982Z,14.41
2022-10-21T20:26:32.670Z,14.40
2022-10-21T20:29:02.922Z,14.39
2022-10-21T20:31:31.425Z,14.39
2022-10-21T20:33:59.038Z,14.38
2022-10-21T20:36:33.608Z,14.37
2022-10-21T20:39:04.017Z,14.38
2022-10-21T20:41:38.325Z,14.37
2022-10-21T20:44:08.615Z,14.37
2022-10-21T20:46:37.158Z,14.36
2022-10-21T20:49:06.867Z,14.34
2022-10-21T20:51:35.277Z,14.36
2022-10-21T20:54:06.885Z,14.35
2022-10-21T20:56:37.260Z,14.35
2022-10-21T20:59:06.248Z,14.33
2022-10-21T21:01:37.122Z,14.33
2022-10-21T21:04:08.119Z,14.32
2022-10-21T21:07:02.051Z,14.31
2022-10-21T21:09:50.251Z,14.29
2022-10-21T21:12:17.722Z,14.27
2022-10-21T21:14:45.329Z,14.27
2022-10-21T21:17:12.962Z,14.26
2022-10-21T21:19:41.134Z,14.29
2022-10-21T21:22:08.785Z,14.26
2022-10-21T21:24:36.437Z,14.26
2022-10-21T21:27:04.116Z,14.26
2022-10-21T21:29:31.825Z,14.27
2022-10-21T21:31:59.488Z,14.24
2022-10-21T21:34:27.088Z,14.24
2022-10-21T21:36:54.739Z,14.26
2022-10-21T21:39:22.372Z,14.25
2022-10-21T21:41:51.199Z,14.22
2022-10-21T21:44:21.062Z,14.20
2022-10-21T21:46:48.968Z,14.21
2022-10-21T21:49:16.734Z,14.24
2022-10-21T21:51:44.391Z,14.24
2022-10-21T21:54:12.276Z,14.26
2022-10-21T21:56:39.911Z,14.26
2022-10-21T21:59:07.610Z,14.27
2022-10-21T22:01:35.479Z,14.23
2022-10-21T22:04:03.828Z,14.24
2022-10-21T22:06:34.522Z,14.25
2022-10-21T22:09:03.458Z,14.24
2022-10-21T22:11:33.640Z,14.24
2022-10-21T22:14:01.272Z,14.24
2022-10-21T22:16:31.155Z,14.21
2022-10-21T22:19:01.349Z,14.22
2022-10-21T22:21:30.589Z,14.23
2022-10-21T22:23:58.794Z,14.23
2022-10-21T22:26:27.806Z,14.22
2022-10-21T22:28:55.787Z,14.22
2022-10-21T22:31:29.150Z,14.21
2022-10-21T22:33:59.611Z,14.23
2022-10-21T22:36:28.225Z,14.20
2022-10-21T22:38:55.874Z,14.21
2022-10-21T22:41:23.540Z,14.21
2022-10-21T22:43:51.166Z,14.21
2022-10-21T22:46:33.491Z,14.21
2022-10-21T22:49:02.031Z,14.22
2022-10-21T22:51:29.648Z,14.22
2022-10-21T22:53:58.135Z,14.22
2022-10-21T22:56:27.051Z,14.25
2022-10-21T22:58:55.116Z,14.26
2022-10-21T23:01:24.912Z,14.28
2022-10-21T23:03:52.770Z,14.29
2022-10-21T23:06:20.399Z,14.29
2022-10-21T23:08:48.089Z,14.29
2022-10-21T23:11:15.848Z,14.26
2022-10-21T23:13:56.172Z,14.20
2022-10-21T23:16:30.728Z,14.16
2022-10-21T23:18:58.493Z,14.02
2022-10-21T23:21:26.237Z,13.84
2022-10-21T23:23:53.843Z,13.65
2022-10-21T23:26:21.468Z,13.49
2022-10-21T23:28:49.176Z,13.36
2022-10-21T23:31:16.810Z,13.20
2022-10-21T23:33:44.541Z,13.10
2022-10-21T23:36:12.435Z,13.03
2022-10-21T23:38:40.073Z,12.93
2022-10-21T23:41:07.797Z,12.89
2022-10-21T23:43:35.464Z,12.84
2022-10-21T23:46:03.116Z,12.76
2022-10-21T23:48:30.861Z,12.73
2022-10-21T23:50:58.594Z,12.71
2022-10-21T23:53:26.234Z,12.63
2022-10-21T23:55:53.861Z,12.56
2022-10-21T23:58:21.517Z,12.45
